Pagrindinis puslapis
METAR-TAF:

METAR-TAF

Oro uostai :

Konija, Turkija

platuma: 37-58N, ilguma: 032-33E, Aukštis: 1032 m

Dabartinis oras

Ataskaita buvo paskelbta 51 minutes, ne 01:02 UTC
Vėjas 4 kt iš Šiaurės
Temperatūra 7°C
Drėgmė 93%
Slėgis 1008 hPa
Matomumas 10 km arba daugiau
Su prošvaistėmis ne aukštis 3500 ft
Su prošvaistėmis ne aukštis 8000 ft
lietus

METAR: LTAN 010102Z 36004KT 9999 -SHRA BKN035 BKN080 07/06 Q1008 NOSIG RMK RWY19 03004KT

Laikas: 04:53 (01:53 UTC)

Prognozė

Ataskaita buvo paskelbta 3 valandos ir 13 minutes, ne 22:40 UTC
Prognozė galioja nuo 01 metu 00 UTC su 01 metu 09 UTC
Vėjas 8 kt iš Šiaurės/Šiaurės Vakarų
Matomumas 10 km arba daugiau
Išsisklaidę debesys ne aukštis 4000 ft
Su prošvaistėmis ne aukštis 10000 ft
Laikinai
nuo 01 metu 00 UTC su 01 metu 04 UTC
Su prošvaistėmis ne aukštis 3000 ft
Su prošvaistėmis ne aukštis 8000 ft
lietus

TAF: LTAN 312240Z 0100/0109 34008KT 9999 SCT040 BKN100 TEMPO 0100/0104 -SHRA BKN030 BKN080

Orai ataskaitas ir orų prognozės (METAR, TAF).

turimą stotys yra geltonos ir raudonos taškus žemėlapyje.

Perkelti pele per norėdami pamatyti stoties vardą.

Tada spustelėkite, norėdami matyti oro stebėjimo ir prognozės.

Norėdami pakeisti žemėlapį: spustelėkite ant žalios mygtukų su juodo kryžiaus žemyn,; žalią mygtuką su brūkšneliu, jei norite nutolinti; arba žalių rodyklių gretimoms žemėlapius.


METAR-TAF: